sensor_id;sensor_type;location;lat;lon;timestamp;temperature;humidity
20155;DHT22;10238;49.556;10.956;2023-07-31T00:00:05;16.00;99.90
20155;DHT22;10238;49.556;10.956;2023-07-31T00:02:55;15.90;99.90
20155;DHT22;10238;49.556;10.956;2023-07-31T00:05:44;15.90;99.90
20155;DHT22;10238;49.556;10.956;2023-07-31T00:08:31;15.90;99.90
20155;DHT22;10238;49.556;10.956;2023-07-31T00:11:19;15.90;99.90
20155;DHT22;10238;49.556;10.956;2023-07-31T00:14:06;15.90;99.90
20155;DHT22;10238;49.556;10.956;2023-07-31T00:16:55;15.90;99.90
20155;DHT22;10238;49.556;10.956;2023-07-31T00:19:43;15.90;99.90
20155;DHT22;10238;49.556;10.956;2023-07-31T00:22:32;15.80;99.90
20155;DHT22;10238;49.556;10.956;2023-07-31T00:25:19;15.80;99.90
20155;DHT22;10238;49.556;10.956;2023-07-31T00:28:07;15.80;99.90
20155;DHT22;10238;49.556;10.956;2023-07-31T00:30:55;15.80;99.90
20155;DHT22;10238;49.556;10.956;2023-07-31T00:33:45;15.70;99.90
20155;DHT22;10238;49.556;10.956;2023-07-31T00:36:32;15.80;99.90
20155;DHT22;10238;49.556;10.956;2023-07-31T00:39:20;15.80;99.90
20155;DHT22;10238;49.556;10.956;2023-07-31T00:42:08;15.80;99.90
20155;DHT22;10238;49.556;10.956;2023-07-31T00:44:55;15.80;99.90
20155;DHT22;10238;49.556;10.956;2023-07-31T00:47:43;15.80;99.90
20155;DHT22;10238;49.556;10.956;2023-07-31T00:50:33;15.90;99.90
20155;DHT22;10238;49.556;10.956;2023-07-31T00:53:21;15.90;99.90
20155;DHT22;10238;49.556;10.956;2023-07-31T00:56:11;16.00;99.90
20155;DHT22;10238;49.556;10.956;2023-07-31T00:58:59;16.00;99.90
20155;DHT22;10238;49.556;10.956;2023-07-31T01:01:47;16.10;99.90
20155;DHT22;10238;49.556;10.956;2023-07-31T01:04:35;16.10;99.90
20155;DHT22;10238;49.556;10.956;2023-07-31T01:07:27;16.10;99.90
20155;DHT22;10238;49.556;10.956;2023-07-31T01:10:24;16.10;99.90
20155;DHT22;10238;49.556;10.956;2023-07-31T01:13:18;16.20;99.90
20155;DHT22;10238;49.556;10.956;2023-07-31T01:16:06;16.20;99.90
20155;DHT22;10238;49.556;10.956;2023-07-31T01:18:54;16.20;99.90
20155;DHT22;10238;49.556;10.956;2023-07-31T01:21:56;16.20;99.90
20155;DHT22;10238;49.556;10.956;2023-07-31T01:25:11;16.20;99.90
20155;DHT22;10238;49.556;10.956;2023-07-31T01:28:14;16.20;99.90
20155;DHT22;10238;49.556;10.956;2023-07-31T01:31:07;16.30;99.90
20155;DHT22;10238;49.556;10.956;2023-07-31T01:34:01;16.30;99.90
20155;DHT22;10238;49.556;10.956;2023-07-31T01:36:49;16.30;99.90
20155;DHT22;10238;49.556;10.956;2023-07-31T01:39:37;16.30;99.90
20155;DHT22;10238;49.556;10.956;2023-07-31T01:42:24;16.30;99.90
20155;DHT22;10238;49.556;10.956;2023-07-31T01:45:14;16.30;99.90
20155;DHT22;10238;49.556;10.956;2023-07-31T01:48:01;16.30;99.90
20155;DHT22;10238;49.556;10.956;2023-07-31T01:50:49;16.30;99.90
20155;DHT22;10238;49.556;10.956;2023-07-31T01:53:37;16.30;99.90
20155;DHT22;10238;49.556;10.956;2023-07-31T01:56:24;16.30;99.90
20155;DHT22;10238;49.556;10.956;2023-07-31T01:59:12;16.30;99.90
20155;DHT22;10238;49.556;10.956;2023-07-31T02:02:01;16.30;99.90
20155;DHT22;10238;49.556;10.956;2023-07-31T02:04:49;16.30;99.90
20155;DHT22;10238;49.556;10.956;2023-07-31T02:07:36;16.30;99.90
20155;DHT22;10238;49.556;10.956;2023-07-31T02:10:24;16.30;99.90
20155;DHT22;10238;49.556;10.956;2023-07-31T02:13:12;16.30;99.90
20155;DHT22;10238;49.556;10.956;2023-07-31T02:15:59;16.30;99.90
20155;DHT22;10238;49.556;10.956;2023-07-31T02:18:49;16.30;99.90
20155;DHT22;10238;49.556;10.956;2023-07-31T02:21:36;16.30;99.90
20155;DHT22;10238;49.556;10.956;2023-07-31T02:24:24;16.20;99.90
20155;DHT22;10238;49.556;10.956;2023-07-31T02:27:12;16.20;99.90
20155;DHT22;10238;49.556;10.956;2023-07-31T02:30:00;16.20;99.90
20155;DHT22;10238;49.556;10.956;2023-07-31T02:32:47;16.20;99.90
20155;DHT22;10238;49.556;10.956;2023-07-31T02:35:36;16.20;99.90
20155;DHT22;10238;49.556;10.956;2023-07-31T02:38:24;16.10;99.90
20155;DHT22;10238;49.556;10.956;2023-07-31T02:41:12;16.20;99.90
20155;DHT22;10238;49.556;10.956;2023-07-31T02:44:00;16.20;99.90
20155;DHT22;10238;49.556;10.956;2023-07-31T02:46:47;16.10;99.90
20155;DHT22;10238;49.556;10.956;2023-07-31T02:49:35;16.10;99.90
20155;DHT22;10238;49.556;10.956;2023-07-31T02:52:24;16.10;99.90
20155;DHT22;10238;49.556;10.956;2023-07-31T02:55:12;16.10;99.90
20155;DHT22;10238;49.556;10.956;2023-07-31T02:57:59;16.00;99.90
20155;DHT22;10238;49.556;10.956;2023-07-31T03:00:47;16.00;99.90
20155;DHT22;10238;49.556;10.956;2023-07-31T03:03:35;16.10;99.90
20155;DHT22;10238;49.556;10.956;2023-07-31T03:06:23;16.00;99.90
20155;DHT22;10238;49.556;10.956;2023-07-31T03:09:13;16.10;99.90
20155;DHT22;10238;49.556;10.956;2023-07-31T03:12:01;16.00;99.90
20155;DHT22;10238;49.556;10.956;2023-07-31T03:14:49;16.00;99.90
20155;DHT22;10238;49.556;10.956;2023-07-31T03:17:37;16.00;99.90
20155;DHT22;10238;49.556;10.956;2023-07-31T03:20:24;16.00;99.90
20155;DHT22;10238;49.556;10.956;2023-07-31T03:23:12;16.00;99.90
20155;DHT22;10238;49.556;10.956;2023-07-31T03:26:02;16.00;99.90
20155;DHT22;10238;49.556;10.956;2023-07-31T03:28:54;16.00;99.90
20155;DHT22;10238;49.556;10.956;2023-07-31T03:31:42;16.00;99.90
20155;DHT22;10238;49.556;10.956;2023-07-31T03:34:29;15.90;99.90
20155;DHT22;10238;49.556;10.956;2023-07-31T03:37:18;15.90;99.90
20155;DHT22;10238;49.556;10.956;2023-07-31T03:40:06;15.90;99.90
20155;DHT22;10238;49.556;10.956;2023-07-31T03:42:56;15.80;99.90
20155;DHT22;10238;49.556;10.956;2023-07-31T03:45:44;15.80;99.90
20155;DHT22;10238;49.556;10.956;2023-07-31T03:48:32;15.70;99.90
20155;DHT22;10238;49.556;10.956;2023-07-31T03:51:19;15.70;99.90
20155;DHT22;10238;49.556;10.956;2023-07-31T03:54:07;15.60;99.90
20155;DHT22;10238;49.556;10.956;2023-07-31T03:56:54;15.50;99.90
20155;DHT22;10238;49.556;10.956;2023-07-31T03:59:43;15.60;99.90
20155;DHT22;10238;49.556;10.956;2023-07-31T04:02:31;15.60;99.90
20155;DHT22;10238;49.556;10.956;2023-07-31T04:05:18;15.60;99.90
20155;DHT22;10238;49.556;10.956;2023-07-31T04:08:06;15.60;99.90
20155;DHT22;10238;49.556;10.956;2023-07-31T04:10:54;15.60;99.90
20155;DHT22;10238;49.556;10.956;2023-07-31T04:13:42;15.60;99.90
20155;DHT22;10238;49.556;10.956;2023-07-31T04:16:31;15.60;99.90
20155;DHT22;10238;49.556;10.956;2023-07-31T04:19:19;15.50;99.90
20155;DHT22;10238;49.556;10.956;2023-07-31T04:22:07;15.50;99.90
20155;DHT22;10238;49.556;10.956;2023-07-31T04:24:54;15.50;99.90
20155;DHT22;10238;49.556;10.956;2023-07-31T04:27:42;15.60;99.90
20155;DHT22;10238;49.556;10.956;2023-07-31T04:30:29;15.50;99.90
20155;DHT22;10238;49.556;10.956;2023-07-31T04:33:18;15.40;99.90
20155;DHT22;10238;49.556;10.956;2023-07-31T04:36:06;15.40;99.90
20155;DHT22;10238;49.556;10.956;2023-07-31T04:38:54;15.40;99.90
20155;DHT22;10238;49.556;10.956;2023-07-31T04:41:41;15.40;99.90
20155;DHT22;10238;49.556;10.956;2023-07-31T04:44:28;15.40;99.90
20155;DHT22;10238;49.556;10.956;2023-07-31T04:47:16;15.40;99.90
20155;DHT22;10238;49.556;10.956;2023-07-31T04:50:08;15.40;99.90
20155;DHT22;10238;49.556;10.956;2023-07-31T04:52:56;15.40;99.90
20155;DHT22;10238;49.556;10.956;2023-07-31T04:55:44;15.40;99.90
20155;DHT22;10238;49.556;10.956;2023-07-31T04:58:32;15.40;99.90
20155;DHT22;10238;49.556;10.956;2023-07-31T05:01:20;15.50;99.90
20155;DHT22;10238;49.556;10.956;2023-07-31T05:04:08;15.60;99.90
20155;DHT22;10238;49.556;10.956;2023-07-31T05:06:56;15.70;99.90
20155;DHT22;10238;49.556;10.956;2023-07-31T05:09:44;15.70;99.90
20155;DHT22;10238;49.556;10.956;2023-07-31T05:12:33;15.70;99.90
20155;DHT22;10238;49.556;10.956;2023-07-31T05:15:20;15.80;99.90
20155;DHT22;10238;49.556;10.956;2023-07-31T05:18:08;15.90;99.90
20155;DHT22;10238;49.556;10.956;2023-07-31T05:20:56;15.90;99.90
20155;DHT22;10238;49.556;10.956;2023-07-31T05:23:45;16.00;99.90
20155;DHT22;10238;49.556;10.956;2023-07-31T05:26:34;16.00;99.90
20155;DHT22;10238;49.556;10.956;2023-07-31T05:29:25;16.10;99.90
20155;DHT22;10238;49.556;10.956;2023-07-31T05:32:12;16.20;99.90
20155;DHT22;10238;49.556;10.956;2023-07-31T05:35:00;16.20;99.90
20155;DHT22;10238;49.556;10.956;2023-07-31T05:37:48;16.30;99.90
20155;DHT22;10238;49.556;10.956;2023-07-31T05:40:37;16.40;99.90
20155;DHT22;10238;49.556;10.956;2023-07-31T05:43:25;16.40;99.90
20155;DHT22;10238;49.556;10.956;2023-07-31T05:46:12;16.50;99.90
20155;DHT22;10238;49.556;10.956;2023-07-31T05:49:00;16.60;99.90
20155;DHT22;10238;49.556;10.956;2023-07-31T05:51:48;16.60;99.90
20155;DHT22;10238;49.556;10.956;2023-07-31T05:54:36;16.80;99.90
20155;DHT22;10238;49.556;10.956;2023-07-31T05:57:25;16.90;99.90
20155;DHT22;10238;49.556;10.956;2023-07-31T06:00:14;17.00;99.90
20155;DHT22;10238;49.556;10.956;2023-07-31T06:03:02;17.10;99.90
20155;DHT22;10238;49.556;10.956;2023-07-31T06:05:50;17.20;99.90
20155;DHT22;10238;49.556;10.956;2023-07-31T06:08:38;17.30;99.90
20155;DHT22;10238;49.556;10.956;2023-07-31T06:11:26;17.30;99.90
20155;DHT22;10238;49.556;10.956;2023-07-31T06:14:15;17.40;99.90
20155;DHT22;10238;49.556;10.956;2023-07-31T06:17:03;17.40;99.90
20155;DHT22;10238;49.556;10.956;2023-07-31T06:19:52;17.50;99.90
20155;DHT22;10238;49.556;10.956;2023-07-31T06:22:39;17.60;99.90
20155;DHT22;10238;49.556;10.956;2023-07-31T06:25:27;17.70;99.90
20155;DHT22;10238;49.556;10.956;2023-07-31T06:28:15;17.70;99.90
20155;DHT22;10238;49.556;10.956;2023-07-31T06:31:04;17.80;99.90
20155;DHT22;10238;49.556;10.956;2023-07-31T06:33:52;18.00;99.90
20155;DHT22;10238;49.556;10.956;2023-07-31T06:36:39;18.10;99.90
20155;DHT22;10238;49.556;10.956;2023-07-31T06:39:27;18.20;99.90
20155;DHT22;10238;49.556;10.956;2023-07-31T06:42:15;18.30;99.90
20155;DHT22;10238;49.556;10.956;2023-07-31T06:45:03;18.40;99.90
20155;DHT22;10238;49.556;10.956;2023-07-31T06:47:52;18.50;99.90
20155;DHT22;10238;49.556;10.956;2023-07-31T06:50:40;18.70;99.90
20155;DHT22;10238;49.556;10.956;2023-07-31T06:53:28;18.80;99.90
20155;DHT22;10238;49.556;10.956;2023-07-31T06:56:16;18.90;99.90
20155;DHT22;10238;49.556;10.956;2023-07-31T06:59:04;19.00;99.90
20155;DHT22;10238;49.556;10.956;2023-07-31T07:01:51;19.10;99.90
20155;DHT22;10238;49.556;10.956;2023-07-31T07:04:40;19.30;99.90
20155;DHT22;10238;49.556;10.956;2023-07-31T07:07:28;19.30;99.90
20155;DHT22;10238;49.556;10.956;2023-07-31T07:10:16;19.40;99.90
20155;DHT22;10238;49.556;10.956;2023-07-31T07:13:04;19.50;99.90
20155;DHT22;10238;49.556;10.956;2023-07-31T07:15:52;19.50;99.90
20155;DHT22;10238;49.556;10.956;2023-07-31T07:18:39;19.60;99.90
20155;DHT22;10238;49.556;10.956;2023-07-31T07:21:49;19.80;99.90
20155;DHT22;10238;49.556;10.956;2023-07-31T07:24:37;19.90;99.90
20155;DHT22;10238;49.556;10.956;2023-07-31T07:27:25;19.90;99.90
20155;DHT22;10238;49.556;10.956;2023-07-31T07:30:12;20.00;99.90
20155;DHT22;10238;49.556;10.956;2023-07-31T07:33:00;20.00;99.90
20155;DHT22;10238;49.556;10.956;2023-07-31T07:35:48;20.00;99.90
20155;DHT22;10238;49.556;10.956;2023-07-31T07:38:42;20.00;99.90
20155;DHT22;10238;49.556;10.956;2023-07-31T07:41:29;20.00;99.90
20155;DHT22;10238;49.556;10.956;2023-07-31T07:44:21;20.00;99.90
20155;DHT22;10238;49.556;10.956;2023-07-31T07:47:26;20.00;99.90
20155;DHT22;10238;49.556;10.956;2023-07-31T07:50:14;20.00;99.90
20155;DHT22;10238;49.556;10.956;2023-07-31T07:53:02;20.00;99.90
20155;DHT22;10238;49.556;10.956;2023-07-31T07:55:51;20.00;99.90
20155;DHT22;10238;49.556;10.956;2023-07-31T07:58:39;20.10;99.90
20155;DHT22;10238;49.556;10.956;2023-07-31T08:01:27;20.20;99.90
20155;DHT22;10238;49.556;10.956;2023-07-31T08:04:15;20.10;99.90
20155;DHT22;10238;49.556;10.956;2023-07-31T08:07:03;20.10;99.90
20155;DHT22;10238;49.556;10.956;2023-07-31T08:09:51;20.40;99.90
20155;DHT22;10238;49.556;10.956;2023-07-31T08:12:41;20.60;99.90
20155;DHT22;10238;49.556;10.956;2023-07-31T08:15:29;20.80;99.90
20155;DHT22;10238;49.556;10.956;2023-07-31T08:18:16;21.00;99.90
20155;DHT22;10238;49.556;10.956;2023-07-31T08:21:05;21.10;99.90
20155;DHT22;10238;49.556;10.956;2023-07-31T08:23:53;21.00;99.90
20155;DHT22;10238;49.556;10.956;2023-07-31T08:26:40;21.00;99.90
